Time;durP1;ratioP1;P1;durP2;ratioP2;P2;SDS_P1;SDS_P2;PMS_P1;PMS_P2;Temp;Humidity;BMP_temperature;BMP_pressure;BME280_temperature;BME280_humidity;BME280_pressure;Samples;Min_cycle;Max_cycle;Signal;HPM_P1;HPM_P2
2021/03/04 00:00:45;;;;;;;79.13;43.33;;;;;;;6.36;99.51;101305.03;5233070;28;20036;-80
2021/03/04 00:03:15;;;;;;;76.50;42.53;;;;;;;6.38;99.97;101303.31;5236799;28;20008;-80
2021/03/04 00:05:45;;;;;;;76.35;42.83;;;;;;;6.38;99.08;101303.31;5214616;28;20029;-80
2021/03/04 00:08:15;;;;;;;79.43;43.35;;;;;;;6.35;99.56;101308.53;5223358;28;20023;-78
2021/03/04 00:10:46;;;;;;;78.63;42.70;;;;;;;6.39;99.21;101305.06;5239890;28;20466;-78
2021/03/04 00:13:16;;;;;;;73.03;42.08;;;;;;;6.36;99.50;101294.66;5221633;28;20231;-79
2021/03/04 00:15:49;;;;;;;72.25;41.47;;;;;;;6.35;99.49;101292.94;5217839;28;20155;-79
2021/03/04 00:18:20;;;;;;;81.05;43.72;;;;;;;6.50;98.12;101287.66;5218881;28;20025;-79
2021/03/04 00:20:52;;;;;;;80.85;44.22;;;;;;;6.33;99.39;101281.72;5222809;28;20021;-79
2021/03/04 00:23:22;;;;;;;78.13;43.50;;;;;;;6.21;99.52;101285.25;5217254;28;20020;-79
2021/03/04 00:25:52;;;;;;;83.45;43.42;;;;;;;6.42;99.19;101282.50;5223525;28;20025;-78
2021/03/04 00:28:22;;;;;;;81.05;44.42;;;;;;;6.32;98.94;101285.19;5203291;28;20017;-80
2021/03/04 00:30:53;;;;;;;77.47;43.38;;;;;;;6.35;98.36;101282.56;5225241;28;20509;-79
2021/03/04 00:33:23;;;;;;;79.40;43.30;;;;;;;6.21;99.53;101281.78;5211837;28;20029;-78
2021/03/04 00:35:53;;;;;;;82.22;43.78;;;;;;;6.12;100.00;101289.66;5211041;28;20032;-78
2021/03/04 00:38:24;;;;;;;84.47;45.58;;;;;;;6.03;100.00;101287.09;5229082;28;20112;-79
2021/03/04 00:40:54;;;;;;;88.47;46.90;;;;;;;5.92;100.00;101281.97;5230953;28;20020;-78
2021/03/04 00:43:24;;;;;;;85.97;44.90;;;;;;;5.89;100.00;101284.59;5210998;28;20029;-80
2021/03/04 00:45:55;;;;;;;81.25;45.08;;;;;;;5.85;100.00;101276.81;5229180;28;20482;-80
2021/03/04 00:48:25;;;;;;;83.50;43.92;;;;;;;5.94;100.00;101279.38;5229564;28;20036;-79
2021/03/04 00:50:55;;;;;;;81.00;45.55;;;;;;;6.04;100.00;101275.84;5229052;28;20029;-78
2021/03/04 00:53:25;;;;;;;83.13;44.17;;;;;;;5.92;100.00;101275.94;5229068;28;20024;-79
2021/03/04 00:55:56;;;;;;;80.85;44.10;;;;;;;5.87;100.00;101280.28;5211658;28;20115;-79
2021/03/04 00:58:26;;;;;;;85.63;45.45;;;;;;;5.93;100.00;101267.28;5228621;28;20024;-79
2021/03/04 01:00:57;;;;;;;85.60;47.05;;;;;;;5.98;100.00;101268.13;5211375;28;20025;-80
2021/03/04 01:03:27;;;;;;;88.30;46.33;;;;;;;6.03;100.00;101269.81;5211758;28;20029;-80
2021/03/04 01:05:57;;;;;;;80.28;44.13;;;;;;;5.98;100.00;101269.00;5210665;28;20025;-79
2021/03/04 01:08:28;;;;;;;88.57;46.72;;;;;;;5.94;100.00;101269.00;5211100;28;20033;-79
2021/03/04 01:10:58;;;;;;;87.65;46.60;;;;;;;6.03;100.00;101269.81;5216141;28;20111;-78
2021/03/04 01:13:29;;;;;;;83.43;46.35;;;;;;;6.15;100.00;101267.16;5213946;28;20029;-79
2021/03/04 01:15:59;;;;;;;92.13;48.35;;;;;;;6.03;100.00;101271.53;5208363;28;20032;-80
2021/03/04 01:18:29;;;;;;;87.93;48.63;;;;;;;6.00;100.00;101268.97;5213568;28;20037;-79
2021/03/04 01:21:00;;;;;;;91.43;49.10;;;;;;;6.07;100.00;101270.66;5221560;28;20025;-79
2021/03/04 01:23:30;;;;;;;99.88;51.63;;;;;;;5.85;100.00;101263.84;5217274;28;20033;-78
2021/03/04 01:26:01;;;;;;;96.28;51.78;;;;;;;6.08;100.00;101269.78;5217907;28;20036;-80
2021/03/04 01:28:31;;;;;;;99.70;52.85;;;;;;;6.08;100.00;101262.00;5215288;28;20036;-79
2021/03/04 01:31:01;;;;;;;96.72;51.35;;;;;;;6.00;100.00;101268.97;5225971;28;20499;-79
2021/03/04 01:33:32;;;;;;;97.18;52.17;;;;;;;5.89;100.00;101261.25;5221618;28;20055;-78
2021/03/04 01:36:02;;;;;;;107.85;55.95;;;;;;;5.99;100.00;101254.28;5219435;28;20028;-79
2021/03/04 01:38:33;;;;;;;99.10;55.17;;;;;;;5.86;100.00;101250.03;5216011;28;20032;-79
2021/03/04 01:41:03;;;;;;;102.97;56.80;;;;;;;5.74;100.00;101250.06;5234419;28;20042;-79
2021/03/04 01:43:33;;;;;;;115.38;60.05;;;;;;;5.72;100.00;101236.25;5238333;28;20021;-79
2021/03/04 01:46:04;;;;;;;115.72;61.85;;;;;;;5.65;100.00;101250.09;5204391;28;20025;-80
2021/03/04 01:48:35;;;;;;;116.55;63.25;;;;;;;5.53;100.00;101245.84;5196775;28;20029;-79
2021/03/04 01:51:06;;;;;;;126.13;66.57;;;;;;;5.48;100.00;101246.72;5219089;28;20032;-79
2021/03/04 01:53:36;;;;;;;128.00;69.68;;;;;;;5.44;100.00;101239.84;5202020;28;20021;-80
2021/03/04 01:56:09;;;;;;;137.05;70.32;;;;;;;5.41;100.00;101248.47;5221447;28;20028;-78
2021/03/04 01:58:39;;;;;;;139.85;70.55;;;;;;;5.46;100.00;101240.69;5196576;28;20116;-79
2021/03/04 02:01:09;;;;;;;153.23;72.97;;;;;;;5.27;100.00;101241.63;5234160;28;20068;-78
2021/03/04 02:03:40;;;;;;;147.60;74.07;;;;;;;5.40;100.00;101227.78;5218647;28;20099;-79
2021/03/04 02:06:10;;;;;;;143.98;73.03;;;;;;;5.46;100.00;101225.16;5224754;28;20099;-80
2021/03/04 02:08:50;;;;;;;150.20;74.50;;;;;;;5.43;100.00;101217.38;5226676;28;20029;-78
2021/03/04 02:11:34;;;;;;;150.73;74.28;;;;;;;5.34;100.00;101220.00;5196142;28;20474;-79
2021/03/04 02:14:09;;;;;;;154.90;73.78;;;;;;;5.38;100.00;101216.56;5206489;28;20022;-79
2021/03/04 02:16:48;;;;;;;146.27;71.63;;;;;;;5.35;100.00;101216.53;5206795;28;20040;-80
2021/03/04 02:19:36;;;;;;;141.35;71.40;;;;;;;5.43;100.00;101223.41;5189017;28;20021;-78
2021/03/04 02:22:25;;;;;;;138.70;70.63;;;;;;;5.46;100.00;101218.25;5189207;28;20026;-78
2021/03/04 02:25:22;;;;;;;127.53;65.50;;;;;;;5.39;100.00;101210.50;5188411;28;20030;-80
2021/03/04 02:27:55;;;;;;;128.98;63.35;;;;;;;5.42;100.00;101213.06;5207175;28;20021;-80
2021/03/04 02:30:33;;;;;;;127.97;60.83;;;;;;;5.39;100.00;101213.94;5209541;28;20055;-79
2021/03/04 02:33:25;;;;;;;129.10;61.45;;;;;;;5.28;100.00;101199.31;5229930;28;20029;-80
2021/03/04 02:35:55;;;;;;;135.00;63.55;;;;;;;5.28;100.00;101196.72;5245665;28;20028;-79
2021/03/04 02:38:27;;;;;;;126.32;62.95;;;;;;;5.18;100.00;101205.38;5245347;28;20035;-79
2021/03/04 02:40:58;;;;;;;122.80;60.90;;;;;;;5.21;100.00;101199.34;5240197;28;20056;-79
2021/03/04 02:43:30;;;;;;;125.93;61.25;;;;;;;5.20;100.00;101198.50;5234074;28;20028;-79
2021/03/04 02:46:02;;;;;;;122.88;59.60;;;;;;;5.26;100.00;101200.19;5224963;28;20090;-79
2021/03/04 02:48:33;;;;;;;121.03;59.30;;;;;;;5.20;100.00;101198.50;5224452;28;20386;-80
2021/03/04 02:51:05;;;;;;;123.70;60.85;;;;;;;5.28;100.00;101201.91;5207368;28;20021;-80
2021/03/04 02:53:37;;;;;;;125.70;61.97;;;;;;;5.21;100.00;101202.81;5224501;28;20111;-80
2021/03/04 02:56:08;;;;;;;123.45;59.13;;;;;;;5.27;100.00;101199.31;5207014;28;20031;-79
2021/03/04 02:58:39;;;;;;;122.53;59.85;;;;;;;5.16;100.00;101191.59;5207398;28;20394;-79
2021/03/04 03:01:09;;;;;;;127.28;59.85;;;;;;;5.18;100.00;101187.25;5233264;28;20050;-79
2021/03/04 03:03:41;;;;;;;127.57;60.90;;;;;;;5.12;100.00;101183.84;5224420;28;20100;-79
2021/03/04 03:06:11;;;;;;;131.65;60.78;;;;;;;5.15;100.00;101174.31;5206424;28;20183;-80
2021/03/04 03:08:43;;;;;;;129.60;62.38;;;;;;;5.10;100.00;101175.19;5206220;28;20111;-80
2021/03/04 03:11:15;;;;;;;128.45;61.40;;;;;;;5.15;100.00;101178.66;5236827;28;20025;-79
2021/03/04 03:13:48;;;;;;;132.38;61.75;;;;;;;5.19;100.00;101178.59;5221839;28;20382;-79
2021/03/04 03:16:19;;;;;;;126.15;59.75;;;;;;;5.26;100.00;101175.16;5236791;28;20031;-79
2021/03/04 03:18:50;;;;;;;131.82;63.33;;;;;;;5.30;100.00;101173.41;5219254;28;20025;-79
2021/03/04 03:21:20;;;;;;;123.55;59.28;;;;;;;5.36;100.00;101169.03;5219189;28;20096;-79
2021/03/04 03:23:50;;;;;;;129.60;59.90;;;;;;;5.31;100.00;101165.59;5237006;28;20025;-79
2021/03/04 03:26:21;;;;;;;129.82;62.53;;;;;;;5.32;100.00;101164.75;5219188;28;20028;-79
2021/03/04 03:28:51;;;;;;;132.90;62.92;;;;;;;5.34;100.00;101163.00;5221433;28;20024;-79
2021/03/04 03:31:24;;;;;;;138.68;62.35;;;;;;;5.34;100.00;101170.78;5224969;28;20021;-79
2021/03/04 03:33:55;;;;;;;129.43;61.33;;;;;;;5.33;100.00;101168.22;5218784;28;20093;-79
2021/03/04 03:36:26;;;;;;;133.73;63.33;;;;;;;5.40;100.00;101162.97;5218058;28;20092;-79
2021/03/04 03:38:58;;;;;;;136.40;62.58;;;;;;;5.37;100.00;101165.59;5210937;28;20100;-81
2021/03/04 03:41:29;;;;;;;134.40;64.53;;;;;;;5.21;100.00;101169.13;5233633;28;20024;-80
2021/03/04 03:44:00;;;;;;;140.18;64.32;;;;;;;5.47;100.00;101164.66;5229039;28;20021;-80
2021/03/04 03:46:33;;;;;;;138.48;64.32;;;;;;;5.41;100.00;101169.88;5210310;28;20388;-80
2021/03/04 03:49:05;;;;;;;130.13;62.50;;;;;;;5.51;100.00;101158.59;5208828;28;20032;-80
2021/03/04 03:51:36;;;;;;;128.40;62.95;;;;;;;5.58;100.00;101160.28;5227131;28;20028;-79
2021/03/04 03:54:07;;;;;;;126.85;61.75;;;;;;;5.50;100.00;101162.03;5228950;28;20025;-80
2021/03/04 03:56:39;;;;;;;137.35;62.10;;;;;;;5.44;100.00;101159.50;5228719;28;20021;-80
2021/03/04 03:59:11;;;;;;;131.45;61.10;;;;;;;5.35;100.00;101156.94;5231630;28;20303;-80
2021/03/04 04:01:42;;;;;;;138.82;60.63;;;;;;;5.38;100.00;101152.63;5228172;28;20105;-80
2021/03/04 04:04:13;;;;;;;134.55;61.70;;;;;;;5.35;100.00;101146.56;5229117;28;20021;-80
2021/03/04 04:06:44;;;;;;;134.75;63.10;;;;;;;5.37;100.00;101144.88;5227977;28;20070;-80
2021/03/04 04:09:15;;;;;;;136.60;63.17;;;;;;;5.36;100.00;101150.88;5203653;28;20029;-79
2021/03/04 04:11:45;;;;;;;141.32;63.97;;;;;;;5.22;100.00;101146.66;5228480;28;20016;-80
2021/03/04 04:14:16;;;;;;;136.15;62.25;;;;;;;5.26;100.00;101141.47;5209887;28;20115;-80
2021/03/04 04:16:46;;;;;;;134.05;62.47;;;;;;;5.22;100.00;101139.75;5228796;28;20095;-80
2021/03/04 04:19:17;;;;;;;144.10;63.97;;;;;;;5.09;100.00;101138.09;5210000;28;20025;-80
2021/03/04 04:21:47;;;;;;;146.70;63.90;;;;;;;5.11;100.00;101141.53;5208857;28;20098;-79
2021/03/04 04:24:18;;;;;;;152.07;65.05;;;;;;;5.11;100.00;101141.53;5226281;28;20013;-80
2021/03/04 04:26:48;;;;;;;151.68;65.85;;;;;;;5.07;100.00;101138.94;5227078;28;20036;-79
2021/03/04 04:29:18;;;;;;;138.43;62.28;;;;;;;5.04;100.00;101134.66;5230542;28;20024;-79
2021/03/04 04:31:48;;;;;;;142.48;61.15;;;;;;;4.99;100.00;101130.38;5216062;28;20607;-79
2021/03/04 04:34:19;;;;;;;140.35;59.35;;;;;;;5.03;100.00;101142.44;5209529;28;20029;-80
2021/03/04 04:36:50;;;;;;;140.20;59.83;;;;;;;4.88;100.00;101138.19;5209963;28;20386;-80
2021/03/04 04:39:20;;;;;;;138.85;60.55;;;;;;;4.82;100.00;101148.53;5227594;28;20119;-79
2021/03/04 04:41:50;;;;;;;135.43;59.10;;;;;;;4.90;100.00;101141.63;5237903;28;20031;-79
2021/03/04 04:44:20;;;;;;;129.05;58.00;;;;;;;4.79;100.00;101143.38;5232741;28;20024;-79
2021/03/04 04:46:52;;;;;;;141.50;59.45;;;;;;;4.74;100.00;101145.13;5209705;28;20508;-80
2021/03/04 04:49:22;;;;;;;139.38;58.85;;;;;;;4.67;100.00;101133.06;5227185;28;20021;-80
2021/03/04 04:51:52;;;;;;;138.68;58.58;;;;;;;4.63;100.00;101131.34;5227368;28;20478;-79
2021/03/04 04:54:23;;;;;;;143.43;58.58;;;;;;;4.61;100.00;101130.50;5224115;28;20098;-79
2021/03/04 04:56:53;;;;;;;144.30;59.40;;;;;;;4.73;100.00;101127.00;5214616;28;20031;-80
2021/03/04 04:59:23;;;;;;;142.23;58.92;;;;;;;4.76;100.00;101127.88;5220555;28;20025;-80
2021/03/04 05:01:53;;;;;;;137.70;57.25;;;;;;;4.71;100.00;101129.63;5223098;28;20023;-80
2021/03/04 05:04:24;;;;;;;143.75;57.17;;;;;;;4.65;100.00;101124.44;5207670;28;20013;-80
2021/03/04 05:06:54;;;;;;;137.65;57.58;;;;;;;4.63;100.00;101128.75;5222579;28;20032;-80
2021/03/04 05:09:25;;;;;;;137.05;56.83;;;;;;;4.64;100.00;101127.88;5222043;28;20020;-80
2021/03/04 05:11:55;;;;;;;133.73;56.10;;;;;;;4.48;100.00;101117.59;5227475;28;20729;-80
2021/03/04 05:14:26;;;;;;;135.77;57.15;;;;;;;4.54;100.00;101120.16;5227901;28;20021;-80
2021/03/04 05:16:56;;;;;;;145.02;56.78;;;;;;;4.53;100.00;101110.69;5228813;28;20279;-80
2021/03/04 05:19:26;;;;;;;142.63;55.63;;;;;;;4.30;100.00;101107.28;5228686;28;20036;-80
2021/03/04 05:21:57;;;;;;;141.02;56.72;;;;;;;4.27;100.00;101102.97;5211132;28;20032;-80
2021/03/04 05:24:27;;;;;;;145.75;55.92;;;;;;;4.35;100.00;101098.66;5227913;28;20025;-80
2021/03/04 05:26:58;;;;;;;140.65;54.25;;;;;;;4.21;100.00;101096.94;5227829;28;20025;-80
2021/03/04 05:29:28;;;;;;;147.85;54.53;;;;;;;4.09;100.00;101100.41;5212496;28;20070;-79
2021/03/04 05:31:58;;;;;;;141.02;56.33;;;;;;;4.13;100.00;101099.53;5215860;28;20672;-80
2021/03/04 05:34:28;;;;;;;141.13;56.10;;;;;;;4.24;100.00;101095.22;5227892;28;20036;-80
2021/03/04 05:36:59;;;;;;;142.32;55.72;;;;;;;4.26;100.00;101083.16;5209262;28;20025;-80
2021/03/04 05:39:29;;;;;;;141.07;53.55;;;;;;;4.22;100.00;101076.28;5227476;28;20491;-80
2021/03/04 05:42:03;;;;;;;135.30;53.35;;;;;;;4.29;100.00;101082.28;5238870;28;20043;-79
2021/03/04 05:44:36;;;;;;;138.83;55.03;;;;;;;4.46;100.00;101088.28;5231487;28;20049;-80
2021/03/04 05:47:06;;;;;;;131.73;53.35;;;;;;;4.35;100.00;101082.28;5227778;28;20271;-80
2021/03/04 05:50:07;;;;;;;138.13;53.75;;;;;;;4.35;100.00;101082.28;5226838;28;20106;-80
2021/03/04 05:52:39;;;;;;;135.95;53.90;;;;;;;4.38;100.00;101083.13;5189704;28;20128;-80
2021/03/04 05:55:11;;;;;;;130.43;51.90;;;;;;;4.35;100.00;101083.16;5208372;28;20478;-80
2021/03/04 05:57:44;;;;;;;141.15;54.92;;;;;;;4.25;100.00;101081.44;5227582;28;20025;-80
2021/03/04 06:00:15;;;;;;;144.52;56.38;;;;;;;4.24;100.00;101082.28;5232674;28;20039;-79
2021/03/04 06:02:46;;;;;;;137.23;53.85;;;;;;;4.37;100.00;101084.00;5212783;28;20021;-80
2021/03/04 06:05:17;;;;;;;145.85;54.38;;;;;;;4.24;100.00;101077.13;5227430;28;20055;-80
2021/03/04 06:07:47;;;;;;;143.32;54.92;;;;;;;4.29;100.00;101074.53;5226938;28;20107;-80
2021/03/04 06:10:17;;;;;;;136.70;51.85;;;;;;;4.30;100.00;101073.66;5230255;28;20066;-80
2021/03/04 06:12:48;;;;;;;138.55;53.50;;;;;;;4.25;100.00;101081.44;5238985;28;20024;-80
2021/03/04 06:15:21;;;;;;;149.82;55.90;;;;;;;4.22;100.00;101084.03;5226473;28;20047;-80
2021/03/04 06:17:56;;;;;;;141.38;53.78;;;;;;;4.26;100.00;101084.88;5206268;28;20032;-80
2021/03/04 06:20:36;;;;;;;142.82;53.75;;;;;;;4.21;100.00;101090.06;5227325;28;20123;-80
2021/03/04 06:23:06;;;;;;;145.68;54.50;;;;;;;4.34;100.00;101091.78;5209225;28;20024;-80
2021/03/04 06:25:37;;;;;;;144.25;54.70;;;;;;;4.42;100.00;101079.66;5227115;28;20525;-80
2021/03/04 06:28:08;;;;;;;136.25;52.70;;;;;;;4.19;100.00;101090.91;5207668;28;20029;-80
2021/03/04 06:30:40;;;;;;;138.88;53.53;;;;;;;4.29;100.00;101093.47;5226338;28;20033;-80
2021/03/04 06:33:12;;;;;;;132.73;50.80;;;;;;;4.34;100.00;101089.19;5225027;28;21739;-80
2021/03/04 06:35:46;;;;;;;131.07;51.17;;;;;;;4.34;100.00;101086.59;5224803;28;20031;-79
2021/03/04 06:38:22;;;;;;;132.13;51.95;;;;;;;4.29;100.00;101090.91;5224449;28;20047;-80
2021/03/04 06:40:53;;;;;;;135.90;52.45;;;;;;;4.25;100.00;101093.47;5226677;28;20035;-79
2021/03/04 06:43:25;;;;;;;129.73;51.15;;;;;;;4.26;100.00;101084.88;5229428;28;20100;-80
2021/03/04 06:46:07;;;;;;;133.63;51.45;;;;;;;4.40;100.00;101085.69;5219801;28;20459;-80
2021/03/04 06:48:37;;;;;;;139.43;51.92;;;;;;;4.16;100.00;101086.59;5224432;28;20112;-80
2021/03/04 06:51:07;;;;;;;132.85;52.13;;;;;;;4.41;100.00;101083.13;5225437;28;20109;-80
2021/03/04 06:53:38;;;;;;;134.30;51.80;;;;;;;4.43;100.00;101083.97;5220078;28;20502;-80
2021/03/04 06:56:09;;;;;;;130.52;49.70;;;;;;;4.50;100.00;101083.06;5217543;28;20031;-80
2021/03/04 06:58:41;;;;;;;135.55;51.50;;;;;;;4.64;100.00;101091.66;5200336;28;20029;-80
2021/03/04 07:01:16;;;;;;;131.48;52.75;;;;;;;4.58;100.00;101086.50;5214754;28;20028;-79
2021/03/04 07:03:51;;;;;;;;;;;;;;;4.42;100.00;101092.59;5222509;28;20332;-80
2021/03/04 07:06:26;;;;;;;146.30;53.15;;;;;;;4.31;100.00;101091.75;5225310;28;20331;-80
2021/03/04 07:08:56;;;;;;;133.50;51.63;;;;;;;4.24;100.00;101089.19;5224928;28;20029;-80
2021/03/04 07:11:27;;;;;;;138.35;50.53;;;;;;;4.08;100.00;101088.34;5232250;28;20730;-79
2021/03/04 07:13:58;;;;;;;132.15;49.90;;;;;;;4.06;100.00;101084.03;5212668;28;20033;-80
2021/03/04 07:16:45;;;;;;;142.30;50.97;;;;;;;4.02;100.00;101088.38;5198190;28;20446;-79
2021/03/04 07:19:16;;;;;;;142.50;51.20;;;;;;;4.04;100.00;101086.66;5196631;28;20112;-79
2021/03/04 07:21:52;;;;;;;140.48;50.78;;;;;;;4.22;100.00;101085.72;5204814;28;20025;-80
2021/03/04 07:24:23;;;;;;;133.50;51.25;;;;;;;4.31;100.00;101086.56;5187790;28;20475;-80
2021/03/04 07:26:55;;;;;;;140.20;52.67;;;;;;;4.22;100.00;101080.56;5205025;28;20034;-80
2021/03/04 07:29:25;;;;;;;138.13;52.28;;;;;;;4.32;100.00;101071.94;5216104;28;20043;-80
2021/03/04 07:31:56;;;;;;;124.07;48.35;;;;;;;4.15;100.00;101077.13;5231669;28;20100;-80
2021/03/04 07:34:26;;;;;;;121.13;47.20;;;;;;;4.22;100.00;101076.28;5225693;28;20507;-80
2021/03/04 07:36:57;;;;;;;122.88;47.58;;;;;;;4.22;100.00;101081.44;5207175;28;20136;-80
2021/03/04 07:39:33;;;;;;;122.20;45.83;;;;;;;4.17;100.00;101070.25;5206478;28;20343;-80
2021/03/04 07:42:15;;;;;;;119.32;45.80;;;;;;;4.12;100.00;101068.53;5235963;28;20422;-79
2021/03/04 07:44:45;;;;;;;122.10;47.10;;;;;;;4.21;100.00;101073.66;5226626;28;20052;-79
2021/03/04 07:47:27;;;;;;;135.65;49.53;;;;;;;4.09;100.00;101071.97;5206704;28;20445;-80
2021/03/04 07:49:57;;;;;;;132.60;46.95;;;;;;;4.36;100.00;101074.50;5205742;28;20029;-80
2021/03/04 07:52:27;;;;;;;128.90;47.92;;;;;;;4.19;100.00;101065.94;5224695;28;20027;-79
2021/03/04 07:55:10;;;;;;;130.77;47.97;;;;;;;4.28;100.00;101070.22;5207082;28;20025;-79
2021/03/04 07:57:48;;;;;;;139.30;49.60;;;;;;;4.25;100.00;101070.22;5224754;28;20082;-80
2021/03/04 08:00:18;;;;;;;143.20;49.67;;;;;;;4.36;100.00;101071.94;5231891;28;20016;-80
2021/03/04 08:02:49;;;;;;;135.15;48.53;;;;;;;4.34;100.00;101076.25;5214324;28;20082;-79
2021/03/04 08:05:32;;;;;;;147.32;48.92;;;;;;;4.42;100.00;101078.78;5210369;28;20023;-80
2021/03/04 08:08:14;;;;;;;141.23;49.08;;;;;;;4.50;100.00;101071.88;5210841;28;20498;-80
2021/03/04 08:10:53;;;;;;;139.85;47.65;;;;;;;4.47;100.00;101072.75;5215565;28;20335;-80
2021/03/04 08:13:34;;;;;;;132.63;45.05;;;;;;;4.50;100.00;101079.63;5219951;28;20025;-80
2021/03/04 08:16:15;;;;;;;135.45;47.08;;;;;;;4.44;100.00;101066.72;5229058;28;20048;-79
2021/03/04 08:19:00;;;;;;;133.93;47.28;;;;;;;4.46;100.00;101068.44;5228654;28;20029;-80
2021/03/04 08:21:31;;;;;;;140.93;46.17;;;;;;;4.49;100.00;101078.75;5196015;28;20025;-80
2021/03/04 08:24:01;;;;;;;134.68;45.25;;;;;;;4.36;100.00;101074.50;5189750;28;20025;-79
2021/03/04 08:26:36;;;;;;;143.18;46.60;;;;;;;4.21;100.00;101073.66;5207720;28;20698;-79
2021/03/04 08:29:10;;;;;;;146.98;46.40;;;;;;;4.20;100.00;101075.41;5198327;28;20081;-79
2021/03/04 08:31:45;;;;;;;137.45;45.45;;;;;;;4.18;100.00;101074.56;5234236;28;20017;-79
2021/03/04 08:34:15;;;;;;;141.30;46.15;;;;;;;4.17;100.00;101074.53;5243187;22;20024;-90
2021/03/04 08:36:48;;;;;;;138.57;43.70;;;;;;;4.31;100.00;101070.22;5204779;28;20025;-89
2021/03/04 08:39:22;;;;;;;136.60;43.70;;;;;;;4.36;100.00;101064.16;5222492;28;20479;-90
2021/03/04 08:42:07;;;;;;;132.50;43.92;;;;;;;4.40;100.00;101055.53;5203913;28;20130;-89
2021/03/04 08:44:46;;;;;;;129.23;43.65;;;;;;;4.25;100.00;101055.56;5222219;28;20108;-89
2021/03/04 08:47:17;;;;;;;137.93;43.78;;;;;;;4.20;100.00;101046.97;5222124;28;20032;-89
2021/03/04 08:49:59;;;;;;;135.27;42.17;;;;;;;4.35;100.00;101046.94;5223376;28;20016;-89
2021/03/04 08:52:30;;;;;;;129.30;41.10;;;;;;;4.27;100.00;101038.31;5222876;28;20036;-88
2021/03/04 08:55:05;;;;;;;124.13;40.40;;;;;;;4.32;100.00;101044.31;5203761;28;20037;-89
2021/03/04 08:57:35;;;;;;;124.78;38.97;;;;;;;4.47;100.00;101030.50;5222456;28;20024;-89
2021/03/04 09:00:21;;;;;;;116.88;39.00;;;;;;;4.56;100.00;101036.50;5207780;28;20380;-89
2021/03/04 09:02:52;;;;;;;119.18;39.55;;;;;;;4.39;100.00;101043.44;5223629;28;20695;-89
2021/03/04 09:05:22;;;;;;;114.20;38.45;;;;;;;4.28;100.00;101037.44;5233848;28;20017;-90
2021/03/04 09:07:53;;;;;;;106.20;37.13;;;;;;;4.33;100.00;101033.09;5204260;28;20534;-89
2021/03/04 09:10:23;;;;;;;113.10;37.85;;;;;;;4.28;100.00;101026.25;5222008;28;20052;-90
2021/03/04 09:12:53;;;;;;;109.47;36.13;;;;;;;4.24;100.00;101027.09;5222215;28;20025;-90
2021/03/04 09:15:24;;;;;;;103.78;36.38;;;;;;;4.31;100.00;101019.31;5219650;28;20387;-90
2021/03/04 09:17:54;;;;;;;102.28;34.67;;;;;;;4.45;100.00;101027.91;5205192;28;20032;-90
2021/03/04 09:20:29;;;;;;;94.93;34.28;;;;;;;4.43;100.00;101024.47;5205118;28;20063;-89
2021/03/04 09:23:00;;;;;;;93.82;33.05;;;;;;;4.48;100.00;101029.63;5203625;28;20123;-89
2021/03/04 09:25:31;;;;;;;90.97;33.17;;;;;;;4.45;100.00;101027.91;5221271;28;20115;-89
2021/03/04 09:28:02;;;;;;;99.68;33.13;;;;;;;4.49;100.00;101029.59;5206342;28;20385;-90
2021/03/04 09:30:33;;;;;;;101.00;34.03;;;;;;;4.30;100.00;101030.53;5206571;28;20325;-90
2021/03/04 09:33:14;;;;;;;94.97;32.42;;;;;;;4.26;100.00;101035.75;5201714;28;20513;-89
2021/03/04 09:35:54;;;;;;;96.95;33.85;;;;;;;4.34;100.00;101034.84;5205202;28;20124;-91
2021/03/04 09:38:27;;;;;;;86.15;30.92;;;;;;;4.43;100.00;101026.19;5195151;28;20045;-91
2021/03/04 09:41:14;;;;;;;88.72;30.50;;;;;;;4.54;100.00;101027.00;5222739;28;20025;-91
2021/03/04 09:43:49;;;;;;;84.40;29.58;;;;;;;4.73;100.00;101029.50;5223243;28;20048;-91
2021/03/04 09:46:39;;;;;;;77.50;28.63;;;;;;;4.43;100.00;101027.03;5222455;28;20376;-92
2021/03/04 09:49:12;;;;;;;81.00;29.13;;;;;;;4.41;100.00;101028.78;5198308;28;20087;-91
2021/03/04 09:51:47;;;;;;;75.65;28.17;;;;;;;4.17;100.00;101031.47;5202065;28;20013;-91
2021/03/04 09:54:28;;;;;;;76.05;26.95;;;;;;;4.13;100.00;101032.31;5221047;28;20095;-91
2021/03/04 09:57:07;;;;;;;78.15;27.20;;;;;;;4.12;100.00;101038.34;5218915;28;20398;-92
2021/03/04 09:59:52;;;;;;;73.60;27.00;;;;;;;4.15;100.00;101038.31;5221005;28;20486;-91
2021/03/04 10:02:26;;;;;;;78.13;27.17;;;;;;;4.20;100.00;101035.75;5220608;28;20037;-92
2021/03/04 10:05:02;;;;;;;71.57;26.33;;;;;;;4.35;100.00;101020.19;5202715;28;20346;-93
2021/03/04 10:07:33;;;;;;;65.13;25.60;;;;;;;4.11;100.00;101026.28;5202138;28;20482;-91
2021/03/04 10:10:04;;;;;;;69.65;26.42;;;;;;;4.05;100.00;101025.44;5218228;28;20036;-90
2021/03/04 10:12:47;;;;;;;68.22;25.63;;;;;;;4.07;100.00;101021.13;5219386;28;20454;-92
2021/03/04 10:15:28;;;;;;;67.18;25.67;;;;;;;4.24;100.00;101025.38;5218292;28;20036;-91
2021/03/04 10:18:05;;;;;;;55.70;23.17;;;;;;;4.26;100.00;101026.25;5201840;28;20119;-88
2021/03/04 10:20:38;;;;;;;60.13;25.80;;;;;;;4.64;100.00;101031.28;5202791;28;20032;-91
2021/03/04 10:23:09;;;;;;;62.03;24.45;;;;;;;4.79;100.00;101023.44;5219883;28;20048;-90
2021/03/04 10:25:40;;;;;;;54.80;22.02;;;;;;;4.93;100.00;101022.50;5219500;28;20056;-92
2021/03/04 10:28:10;;;;;;;50.13;21.48;;;;;;;5.07;100.00;101027.56;5219668;28;20260;-91
2021/03/04 10:30:41;;;;;;;54.78;22.52;;;;;;;5.15;99.91;101024.06;5219011;28;20108;-91
2021/03/04 10:33:12;;;;;;;52.90;22.40;;;;;;;5.31;98.97;101017.06;5219571;28;20020;-91
2021/03/04 10:35:42;;;;;;;52.95;23.33;;;;;;;5.38;99.07;101016.13;5202459;28;20029;-92
2021/03/04 10:38:13;;;;;;;56.38;23.70;;;;;;;5.19;99.22;101020.56;5220085;28;20025;-90
2021/03/04 10:40:43;;;;;;;56.25;23.67;;;;;;;5.32;99.27;101024.81;5218929;28;20025;-92
2021/03/04 10:43:14;;;;;;;58.50;23.77;;;;;;;5.36;99.60;101028.25;5216062;28;20103;-93
2021/03/04 10:45:44;;;;;;;56.53;24.33;;;;;;;5.26;99.84;101044.72;5202860;28;20025;-91
2021/03/04 10:48:15;;;;;;;54.22;23.77;;;;;;;5.09;100.00;101044.84;5220679;28;20036;-91
2021/03/04 10:50:45;;;;;;;57.25;23.17;;;;;;;4.92;100.00;101040.63;5220675;28;20118;-92
2021/03/04 10:53:16;;;;;;;56.42;23.77;;;;;;;4.93;100.00;101042.34;5203041;28;20036;-91
2021/03/04 10:55:46;;;;;;;57.38;23.80;;;;;;;4.73;100.00;101051.94;5235334;22;20095;-82
2021/03/04 10:58:17;;;;;;;55.83;22.55;;;;;;;4.50;100.00;101046.84;5214741;28;20024;-82
2021/03/04 11:00:47;;;;;;;60.72;23.35;;;;;;;4.31;100.00;101050.34;5215623;28;20025;-83
2021/03/04 11:03:18;;;;;;;59.67;26.55;;;;;;;4.45;100.00;101052.94;5201623;28;20018;-83
2021/03/04 11:05:48;;;;;;;53.50;21.77;;;;;;;4.43;100.00;101045.16;5192181;28;20096;-81
2021/03/04 11:08:18;;;;;;;51.83;22.38;;;;;;;4.27;100.00;101043.47;5194286;28;20222;-82
2021/03/04 11:10:49;;;;;;;51.80;21.48;;;;;;;4.35;100.00;101049.50;5202705;28;20021;-79
2021/03/04 11:13:21;;;;;;;48.63;20.77;;;;;;;4.40;100.00;101047.75;5205268;28;20030;-83
2021/03/04 11:15:52;;;;;;;45.40;20.08;;;;;;;4.24;100.00;101038.31;5211627;28;20402;-82
2021/03/04 11:18:23;;;;;;;48.15;20.25;;;;;;;4.58;100.00;101049.41;5209297;28;20029;-84
2021/03/04 11:20:54;;;;;;;45.28;20.45;;;;;;;4.43;100.00;101049.50;5212084;28;20050;-80
2021/03/04 11:23:24;;;;;;;45.45;19.83;;;;;;;4.45;100.00;101056.34;5208115;28;20068;-82
2021/03/04 11:25:55;;;;;;;44.75;19.08;;;;;;;4.47;100.00;101051.19;5192448;28;20021;-80
2021/03/04 11:28:25;;;;;;;44.15;19.75;;;;;;;4.47;100.00;101048.59;5191812;28;20026;-81